CST,Max TemperatureF,Mean TemperatureF,Min TemperatureF,Max Dew PointF,MeanDew PointF,Min DewpointF,Max Humidity, Mean Humidity, Min Humidity, Max Sea Level PressureIn, Mean Sea Level PressureIn, Min Sea Level PressureIn, Max VisibilityMiles, Mean VisibilityMiles, Min VisibilityMiles, Max Wind SpeedMPH, Mean Wind SpeedMPH, Max Gust SpeedMPH,PrecipitationIn, CloudCover, Events, WindDirDegrees
2012-12-1,68,59,50,57,54,48,100,81,60,30.10,30.03,29.94,10,8,5,20,7,34,0.00,5,,160
2012-12-2,73,68,62,59,57,54,83,73,50,30.08,30.02,29.99,10,10,10,15,7,21,0.00,2,,189
2012-12-3,73,66,59,57,55,50,94,72,44,30.01,29.98,29.90,10,10,10,22,9,33,0.00,1,,170
2012-12-4,62,52,41,57,44,28,100,75,44,30.33,30.16,29.98,10,8,1,15,5,21,0.83,4,Rain-Thunderstorm,344
2012-12-5,57,45,33,36,32,28,93,65,36,30.34,30.26,30.12,10,10,10,13,2,,0.00,1,,127
2012-12-6,62,50,39,46,44,34,93,77,52,30.02,29.92,29.87,10,10,10,9,6,,0.00,4,,136
2012-12-7,55,50,44,50,47,45,100,92,77,29.91,29.88,29.82,10,8,4,0,0,,0.00,8,,-1
2012-12-8,53,50,48,50,49,46,100,92,82,29.95,29.88,29.83,10,6,0,12,2,,0.00,8,Fog,90
2012-12-9,53,42,32,54,44,25,100,92,70,29.98,29.86,29.77,10,5,0,18,5,23,0.00,7,Fog-Rain-Thunderstorm,323
2012-12-10,32,28,23,23,18,16,86,72,60,30.08,30.01,29.96,10,10,10,15,9,23,0.00,3,,313
2012-12-11,44,32,21,18,14,7,86,56,23,30.22,30.13,30.07,10,10,10,12,2,,0.00,0,,217
2012-12-12,50,37,24,16,11,7,69,37,20,30.31,30.24,30.21,10,10,10,10,5,,0.00,0,,173
2012-12-13,60,46,32,25,19,14,65,46,19,30.28,30.23,30.17,10,10,10,10,6,,0.00,0,,150
2012-12-14,50,42,33,39,29,23,93,63,37,30.19,30.08,29.86,10,9,2,15,6,22,0.08,5,Rain,134
2012-12-15,64,54,44,46,39,32,93,64,34,29.85,29.77,29.70,10,10,5,17,12,26,0.00,3,Rain,201
2012-12-16,62,53,44,37,34,32,76,54,32,29.76,29.72,29.63,10,10,10,9,4,,0.00,1,,229
2012-12-17,44,40,37,39,36,32,100,86,66,29.83,29.75,29.68,10,7,0,14,6,20,0.00,3,Fog,279
2012-12-18,62,48,35,37,32,30,81,64,30,29.87,29.81,29.75,10,10,10,14,4,20,0.00,0,,169
2012-12-19,59,49,39,59,44,32,100,80,61,29.87,29.72,29.46,10,9,1,15,6,25,0.28,5,Rain-Thunderstorm,133
2012-12-20,55,42,28,52,28,12,88,65,47,30.23,29.83,29.43,10,9,4,26,14,52,0.00,3,Rain-Snow,270
2012-12-21,44,37,30,18,13,10,55,43,27,30.35,30.28,30.22,10,10,10,16,9,29,0.00,0,,294
2012-12-22,62,45,28,25,16,5,80,37,10,30.27,30.14,30.00,10,10,10,14,6,21,0.00,2,,178
2012-12-23,62,54,44,45,39,25,82,62,37,29.99,29.89,29.81,10,10,10,9,6,,0.00,4,,225
2012-12-24,44,35,26,36,27,21,93,78,56,30.02,29.94,29.83,10,7,5,13,6,16,0.00,4,,329
2012-12-25,32,28,23,21,20,18,86,77,60,30.08,29.99,29.92,10,7,4,23,9,29,0.00,5,Rain,28
2012-12-26,32,26,21,19,17,16,80,72,55,30.17,30.07,29.95,10,10,10,20,13,28,0.00,4,,329
2012-12-27,37,29,21,25,21,18,86,75,56,30.12,30.04,29.96,10,10,10,16,7,20,0.00,4,,127
2012-12-28,33,30,28,30,27,21,100,86,74,30.02,29.96,29.88,10,6,1,16,7,22,0.00,7,Snow,326
2012-12-29,32,26,21,19,16,14,86,64,51,30.38,30.21,30.02,10,9,7,17,10,22,0.00,3,Thunderstorm,281
2012-12-30,42,33,24,19,16,14,69,50,33,30.43,30.31,30.22,10,10,10,10,5,,0.00,3,,170
2012-12-31,35,34,32,36,31,19,100,91,52,30.24,30.11,30.00,10,3,0,8,3,,0.09,8,Fog-Rain,135